58.2°F
Current conditions from King Hill
Updated every 5 minutes
 
  Monday September 22, 2014

Station Historical Data
 
Daily Summary for September 22, 2014 Units:  English    Metric   Both
« Previous Day
Next Day »
Daily Weekly Monthly Yearly Custom
  Current: High: Low: Average:
Temperature: 58.2 °F 60.1 °F 58.2 °F 59.3 °F
Dew Point: 57.1 °F 59.0 °F 56.9 °F 58.2 °F
Humidity: 96% 96% 95% 96%
Wind Speed: 0.0mph 5.0mph 1.0mph 2.3mph
Wind Gust: 5.0mph 13.0mph - -
WindCalm - - SW
Pressure: 29.44 in 29.46 in 29.42 in -
Precipitation: 0.02 in      
Historical Graphs
 
 
Tabular Data for September 22, 2014
Time Temperature Dew Point Pressure Wind Wind Speed Wind Gust Humidity Daily Rainfall
00:00 60.1 °F 59.0 °F 29.45 in SW 1.0 mph 6.0 mph 96% 0.27 in
00:05 60.1 °F 59.0 °F 29.46 in Calm   7.0 mph 96% 0.00 in
00:10 60.0 °F 58.9 °F 29.46 in Calm   7.0 mph 96% 0.00 in
00:15 59.9 °F 58.8 °F 29.46 in SSW 1.0 mph 7.0 mph 96% 0.00 in
00:20 59.8 °F 58.7 °F 29.46 in Calm   7.0 mph 96% 0.00 in
00:25 59.6 °F 58.5 °F 29.45 in WSW 1.0 mph 6.0 mph 96% 0.00 in
00:30 59.4 °F 58.3 °F 29.45 in Calm   7.0 mph 96% 0.00 in
00:35 59.3 °F 58.2 °F 29.45 in Calm   7.0 mph 96% 0.00 in
00:40 59.3 °F 58.2 °F 29.45 in Calm   9.0 mph 96% 0.00 in
00:45 59.4 °F 58.3 °F 29.45 in Calm   9.0 mph 96% 0.00 in
00:50 59.5 °F 58.4 °F 29.45 in SW 4.0 mph 9.0 mph 96% 0.00 in
00:55 59.7 °F 58.6 °F 29.45 in SSW 3.0 mph 9.0 mph 96% 0.00 in
01:00 59.7 °F 58.6 °F 29.44 in SW 3.0 mph 13.0 mph 96% 0.00 in
01:05 59.6 °F 58.5 °F 29.45 in SW 4.0 mph 13.0 mph 96% 0.00 in
01:10 59.6 °F 58.5 °F 29.46 in SW 4.0 mph 12.0 mph 96% 0.00 in
01:15 59.6 °F 58.5 °F 29.46 in SW 2.0 mph 11.0 mph 96% 0.00 in
01:20 59.5 °F 58.4 °F 29.45 in SW 4.0 mph 11.0 mph 96% 0.00 in
01:25 59.6 °F 58.5 °F 29.46 in SW 3.0 mph 10.0 mph 96% 0.00 in
01:30 59.6 °F 58.5 °F 29.45 in SW 2.0 mph 10.0 mph 96% 0.00 in
01:35 59.6 °F 58.5 °F 29.44 in WSW 1.0 mph 8.0 mph 96% 0.00 in
01:40 59.6 °F 58.5 °F 29.45 in SW 2.0 mph 10.0 mph 96% 0.00 in
01:45 59.6 °F 58.5 °F 29.44 in SSW 2.0 mph 10.0 mph 96% 0.00 in
01:50 59.6 °F 58.5 °F 29.44 in SW 1.0 mph 8.0 mph 96% 0.01 in
01:55 59.6 °F 58.2 °F 29.44 in SW 1.0 mph 8.0 mph 95% 0.01 in
02:00 59.6 °F 58.2 °F 29.44 in SSW 1.0 mph 6.0 mph 95% 0.01 in
02:05 59.5 °F 58.1 °F 29.43 in Calm   6.0 mph 95% 0.01 in
02:10 59.5 °F 58.4 °F 29.42 in Calm   2.0 mph 96% 0.01 in
02:15 59.3 °F 58.2 °F 29.43 in SW 1.0 mph 4.0 mph 96% 0.01 in
02:20 59.3 °F 58.2 °F 29.43 in SW 2.0 mph 4.0 mph 96% 0.02 in
02:25 59.3 °F 58.2 °F 29.43 in SW 1.0 mph 5.0 mph 96% 0.02 in
02:30 59.2 °F 58.1 °F 29.43 in SW 4.0 mph 11.0 mph 96% 0.02 in
02:35 59.2 °F 58.1 °F 29.43 in SW 2.0 mph 11.0 mph 96% 0.02 in
02:40 59.1 °F 58.0 °F 29.43 in SW 3.0 mph 10.0 mph 96% 0.02 in
02:45 59.0 °F 57.9 °F 29.43 in SW 3.0 mph 9.0 mph 96% 0.02 in
02:50 59.0 °F 57.9 °F 29.43 in SW 2.0 mph 9.0 mph 96% 0.02 in
02:55 58.9 °F 57.8 °F 29.43 in Calm   9.0 mph 96% 0.02 in
03:00 59.0 °F 57.9 °F 29.43 in SW 1.0 mph 9.0 mph 96% 0.02 in
03:05 59.0 °F 57.9 °F 29.43 in SSW 3.0 mph 9.0 mph 96% 0.02 in
03:10 59.0 °F 57.9 °F 29.43 in SSW 5.0 mph 10.0 mph 96% 0.02 in
03:15 59.0 °F 57.9 °F 29.43 in SW 2.0 mph 10.0 mph 96% 0.02 in
03:20 58.9 °F 57.8 °F 29.43 in SW 3.0 mph 12.0 mph 96% 0.02 in
03:25 58.9 °F 57.8 °F 29.43 in Calm   12.0 mph 96% 0.02 in
03:30 58.9 °F 57.8 °F 29.43 in WSW 2.0 mph 9.0 mph 96% 0.02 in
03:35 58.9 °F 57.8 °F 29.43 in Calm   8.0 mph 96% 0.02 in
03:40 58.7 °F 57.6 °F 29.43 in WSW 2.0 mph 8.0 mph 96% 0.02 in
03:45 58.6 °F 57.5 °F 29.43 in WSW 1.0 mph 9.0 mph 96% 0.02 in
03:50 58.5 °F 57.1 °F 29.43 in SW 2.0 mph 9.0 mph 95% 0.02 in
03:55 58.3 °F 56.9 °F 29.44 in WSW 2.0 mph 8.0 mph 95% 0.02 in
04:00 58.3 °F 56.9 °F 29.44 in Calm   8.0 mph 95% 0.02 in
04:05 58.2 °F 57.1 °F 29.44 in Calm   5.0 mph 96% 0.02 in
Westford Weather
Compliments of Weather Underground

 
 
Current Radar Loop:

Copyright © WestfordWeather.net 2007-2014. All rights reserved.